Time;durP1;ratioP1;P1;durP2;ratioP2;P2;SDS_P1;SDS_P2;PMS_P1;PMS_P2;Temp;Humidity;BMP_temperature;BMP_pressure;BME280_temperature;BME280_humidity;BME280_pressure;Samples;Min_cycle;Max_cycle;Signal;HPM_P1;HPM_P2
2023/11/03 00:00:07;;;;;;;4.60;0.90;;;9.00;99.90;;;;;;5026913;28;20500;-81
2023/11/03 00:02:33;;;;;;;2.50;0.80;;;9.10;99.90;;;;;;5018885;28;20017;-80
2023/11/03 00:05:01;;;;;;;2.17;0.70;;;9.10;99.90;;;;;;5034944;28;20091;-78
2023/11/03 00:07:28;;;;;;;2.92;0.98;;;9.10;99.90;;;;;;5033867;28;20026;-79
2023/11/03 00:09:55;;;;;;;1.45;0.60;;;9.10;99.90;;;;;;5037342;28;20036;-79
2023/11/03 00:12:20;;;;;;;3.83;0.70;;;9.10;99.90;;;;;;5032516;28;20052;-77
2023/11/03 00:14:46;;;;;;;2.42;0.77;;;9.10;99.90;;;;;;5043316;28;20029;-80
2023/11/03 00:17:13;;;;;;;3.13;0.80;;;9.10;99.90;;;;;;5036467;28;20025;-82
2023/11/03 00:19:38;;;;;;;4.32;0.85;;;9.10;99.90;;;;;;5027781;28;20018;-80
2023/11/03 00:22:04;;;;;;;5.55;1.00;;;9.10;99.90;;;;;;5036744;28;20033;-79
2023/11/03 00:24:30;;;;;;;3.95;1.00;;;9.20;99.90;;;;;;5033535;28;20029;-81
2023/11/03 00:26:55;;;;;;;3.03;0.70;;;9.10;99.90;;;;;;5032792;28;20167;-80
2023/11/03 00:29:22;;;;;;;2.45;0.70;;;9.10;99.90;;;;;;5033703;28;20115;-82
2023/11/03 00:31:48;;;;;;;3.22;0.68;;;9.20;99.90;;;;;;5041511;28;20453;-84
2023/11/03 00:34:15;;;;;;;3.17;0.60;;;9.10;99.90;;;;;;5038255;28;20028;-80
2023/11/03 00:36:42;;;;;;;3.38;0.70;;;9.10;99.90;;;;;;5029767;28;20045;-81
2023/11/03 00:39:12;;;;;;;5.45;0.98;;;9.20;99.90;;;;;;5035233;28;20036;-80
2023/11/03 00:41:39;;;;;;;1.50;0.70;;;9.20;99.90;;;;;;5029410;28;20037;-83
2023/11/03 00:44:06;;;;;;;4.32;0.90;;;9.20;99.90;;;;;;5035002;28;20028;-83
2023/11/03 00:46:32;;;;;;;3.65;0.90;;;9.20;99.90;;;;;;5032928;28;20029;-83
2023/11/03 00:48:58;;;;;;;2.40;1.00;;;9.20;99.90;;;;;;5027156;28;20026;-82
2023/11/03 00:51:24;;;;;;;3.58;0.80;;;9.20;99.90;;;;;;5039416;28;20039;-80
2023/11/03 00:53:49;;;;;;;2.88;1.10;;;9.30;99.90;;;;;;5033086;28;20077;-80
2023/11/03 00:56:15;;;;;;;4.13;1.00;;;9.30;99.90;;;;;;5039600;28;20033;-81
2023/11/03 00:58:41;;;;;;;1.85;0.82;;;9.20;99.90;;;;;;5044236;28;20493;-82
2023/11/03 01:01:11;;;;;;;2.75;0.95;;;9.20;99.90;;;;;;5038562;28;20021;-82
2023/11/03 01:03:36;;;;;;;4.88;0.93;;;9.20;99.90;;;;;;5036400;28;20021;-78
2023/11/03 01:06:02;;;;;;;3.58;0.63;;;9.20;99.90;;;;;;5042661;28;20048;-82
2023/11/03 01:08:28;;;;;;;2.35;0.80;;;9.20;99.90;;;;;;5029880;28;20080;-82
2023/11/03 01:10:53;;;;;;;2.35;0.75;;;9.20;99.90;;;;;;5035848;28;20037;-80
2023/11/03 01:13:21;;;;;;;3.67;0.80;;;9.10;99.90;;;;;;5039536;28;20026;-82
2023/11/03 01:15:46;;;;;;;3.83;0.90;;;9.20;99.90;;;;;;5033788;28;20026;-79
2023/11/03 01:18:12;;;;;;;2.20;0.60;;;9.20;99.90;;;;;;5043328;28;20262;-83
2023/11/03 01:20:38;;;;;;;1.75;0.68;;;9.20;99.90;;;;;;5031110;28;20025;-83
2023/11/03 01:23:07;;;;;;;2.28;0.80;;;9.20;99.90;;;;;;5045618;28;20030;-83
2023/11/03 01:25:32;;;;;;;8.73;1.50;;;9.20;99.90;;;;;;5040483;28;20017;-84
2023/11/03 01:27:59;;;;;;;3.42;0.50;;;9.10;99.90;;;;;;5033720;28;20095;-83
2023/11/03 01:30:25;;;;;;;1.77;0.70;;;9.10;99.90;;;;;;5029564;28;20029;-86
2023/11/03 01:32:55;;;;;;;1.73;0.50;;;9.20;99.90;;;;;;5031294;28;20506;-81
2023/11/03 01:35:24;;;;;;;1.23;0.50;;;9.20;99.90;;;;;;5011187;28;20091;-84
2023/11/03 01:37:51;;;;;;;3.65;0.82;;;9.20;99.90;;;;;;5010252;28;20030;-84
2023/11/03 01:40:17;;;;;;;4.32;0.90;;;9.20;99.90;;;;;;5033408;28;20437;-84
2023/11/03 01:42:43;;;;;;;2.92;1.00;;;9.20;99.90;;;;;;5039825;28;20031;-81
2023/11/03 01:45:10;;;;;;;1.17;0.40;;;9.20;99.90;;;;;;5032756;28;20067;-84
2023/11/03 01:47:36;;;;;;;2.67;0.77;;;9.20;99.90;;;;;;5041497;28;20036;-83
2023/11/03 01:50:02;;;;;;;2.88;1.13;;;9.20;99.90;;;;;;5044311;28;20017;-80
2023/11/03 01:52:30;;;;;;;3.88;0.68;;;9.20;99.90;;;;;;5038423;28;20036;-86
2023/11/03 01:54:56;;;;;;;2.83;0.60;;;9.30;99.90;;;;;;5037522;28;20033;-85
2023/11/03 01:57:22;;;;;;;4.88;0.80;;;9.30;99.90;;;;;;5031829;28;20029;-80
2023/11/03 01:59:51;;;;;;;2.30;0.80;;;9.30;99.90;;;;;;5044014;28;20152;-87
2023/11/03 02:02:18;;;;;;;3.78;0.77;;;9.30;99.90;;;;;;5034814;28;20033;-92
2023/11/03 02:04:44;;;;;;;3.42;0.73;;;9.30;99.90;;;;;;5031820;28;20029;-88
2023/11/03 02:07:10;;;;;;;3.75;0.70;;;9.40;99.90;;;;;;5030571;28;20022;-86
2023/11/03 02:09:35;;;;;;;3.03;0.93;;;9.40;99.90;;;;;;5031328;28;20118;-84
2023/11/03 02:12:01;;;;;;;3.92;1.00;;;9.40;99.90;;;;;;5032414;28;20029;-86
2023/11/03 02:14:27;;;;;;;5.68;1.30;;;9.40;99.90;;;;;;5030898;28;20029;-82
2023/11/03 02:16:52;;;;;;;1.23;0.60;;;9.40;99.90;;;;;;5031756;28;20474;-82
2023/11/03 02:19:18;;;;;;;3.53;0.75;;;9.40;99.90;;;;;;5030511;28;20025;-90
2023/11/03 02:21:44;;;;;;;3.92;0.82;;;9.50;99.90;;;;;;5044113;28;20030;-86
2023/11/03 02:24:10;;;;;;;1.60;0.70;;;9.50;99.90;;;;;;5042350;28;20622;-83
2023/11/03 02:26:36;;;;;;;2.92;0.88;;;9.50;99.90;;;;;;5033251;28;20051;-84
2023/11/03 02:29:06;;;;;;;4.68;1.00;;;9.50;99.90;;;;;;5040354;28;20032;-83
2023/11/03 02:31:32;;;;;;;4.30;1.02;;;9.50;99.90;;;;;;5037208;28;20025;-87
2023/11/03 02:33:58;;;;;;;4.18;0.93;;;9.60;99.90;;;;;;5050700;28;20029;-85
2023/11/03 02:36:25;;;;;;;6.28;1.02;;;9.60;99.90;;;;;;5036864;28;20129;-82
2023/11/03 02:38:52;;;;;;;4.55;0.70;;;9.60;99.90;;;;;;5041225;28;20034;-81
2023/11/03 02:41:19;;;;;;;4.85;1.15;;;9.60;99.90;;;;;;5031296;28;20017;-83
2023/11/03 02:43:45;;;;;;;5.03;1.00;;;9.60;99.90;;;;;;5036677;28;20031;-86
2023/11/03 02:46:11;;;;;;;4.55;1.02;;;9.60;99.90;;;;;;5040078;28;20052;-86
2023/11/03 02:48:37;;;;;;;4.75;1.25;;;9.70;99.90;;;;;;5033932;28;20052;-90
2023/11/03 02:51:03;;;;;;;4.05;1.00;;;9.70;99.90;;;;;;5042809;28;20036;-91
2023/11/03 02:53:30;;;;;;;3.95;0.77;;;9.70;99.90;;;;;;5031090;28;20649;-86
2023/11/03 02:55:55;;;;;;;5.40;1.25;;;9.70;99.90;;;;;;5031791;28;20053;-82
2023/11/03 02:58:23;;;;;;;5.95;1.20;;;9.70;99.90;;;;;;5044439;28;20052;-87
2023/11/03 03:00:48;;;;;;;6.53;1.25;;;9.80;99.90;;;;;;5031975;28;20033;-86
2023/11/03 03:03:14;;;;;;;2.97;0.70;;;9.80;99.90;;;;;;5041912;28;20478;-86
2023/11/03 03:05:40;;;;;;;3.38;1.17;;;9.80;99.90;;;;;;5034033;28;20048;-83
2023/11/03 03:08:05;;;;;;;3.63;0.93;;;9.80;99.90;;;;;;5041103;28;20033;-86
2023/11/03 03:10:32;;;;;;;3.75;1.27;;;9.80;99.90;;;;;;5051115;28;20068;-86
2023/11/03 03:12:58;;;;;;;5.32;0.90;;;9.80;99.90;;;;;;5049997;28;20029;-86
2023/11/03 03:15:24;;;;;;;3.97;1.20;;;9.90;99.90;;;;;;5037047;28;20514;-86
2023/11/03 03:17:50;;;;;;;4.70;1.52;;;9.90;99.90;;;;;;5031020;28;20033;-83
2023/11/03 03:20:16;;;;;;;4.40;1.10;;;9.90;99.90;;;;;;5038093;28;20033;-87
2023/11/03 03:22:42;;;;;;;3.88;1.20;;;9.90;99.90;;;;;;5051108;28;20022;-90
2023/11/03 03:25:08;;;;;;;9.10;1.27;;;9.90;99.90;;;;;;5045481;28;20021;-88
2023/11/03 03:27:34;;;;;;;3.85;1.25;;;9.90;99.90;;;;;;5031842;28;20108;-86
2023/11/03 03:30:00;;;;;;;5.75;1.17;;;9.90;99.90;;;;;;5031477;28;20498;-86
2023/11/03 03:32:26;;;;;;;3.15;0.85;;;9.90;99.90;;;;;;5030977;28;20112;-87
2023/11/03 03:34:52;;;;;;;6.68;1.10;;;10.00;99.90;;;;;;5033099;28;20025;-86
2023/11/03 03:37:17;;;;;;;4.20;1.00;;;10.00;99.90;;;;;;5043673;28;20494;-87
2023/11/03 03:39:44;;;;;;;4.72;1.25;;;10.00;99.90;;;;;;5030369;28;20039;-85
2023/11/03 03:42:09;;;;;;;4.80;1.00;;;10.00;99.90;;;;;;5044449;28;20025;-90
2023/11/03 03:44:40;;;;;;;3.53;0.90;;;10.00;99.90;;;;;;5030738;28;20379;-89
2023/11/03 03:47:06;;;;;;;4.07;0.88;;;10.00;99.90;;;;;;5031732;28;20036;-84
2023/11/03 03:49:32;;;;;;;3.88;1.30;;;10.00;99.90;;;;;;5041732;28;20020;-85
2023/11/03 03:51:58;;;;;;;4.43;1.13;;;10.00;99.90;;;;;;5047776;28;20029;-87
2023/11/03 03:54:23;;;;;;;4.32;1.17;;;10.00;99.90;;;;;;5030542;28;20022;-86
2023/11/03 03:56:49;;;;;;;3.33;1.05;;;10.10;99.90;;;;;;5031562;28;20381;-84
2023/11/03 03:59:14;;;;;;;4.93;1.10;;;10.10;99.90;;;;;;5043803;28;20462;-87
2023/11/03 04:01:42;;;;;;;8.90;1.25;;;10.10;99.90;;;;;;5043837;28;20494;-87
2023/11/03 04:04:07;;;;;;;6.63;1.35;;;10.10;99.90;;;;;;5031325;28;20128;-87
2023/11/03 04:06:33;;;;;;;5.35;1.10;;;10.10;99.90;;;;;;5042193;28;20084;-86
2023/11/03 04:08:59;;;;;;;7.63;1.25;;;10.10;99.90;;;;;;5033106;28;20025;-86
2023/11/03 04:11:24;;;;;;;6.78;1.23;;;10.10;99.90;;;;;;4991398;28;20042;-87
2023/11/03 04:13:50;;;;;;;6.57;1.40;;;10.10;99.90;;;;;;4991239;28;20041;-88
2023/11/03 04:16:16;;;;;;;8.07;1.60;;;10.10;99.90;;;;;;5004031;28;20019;-88
2023/11/03 04:18:41;;;;;;;6.57;1.38;;;10.00;99.90;;;;;;4991714;28;20812;-85
2023/11/03 04:21:07;;;;;;;5.40;1.58;;;10.00;99.90;;;;;;5004737;28;20041;-85
2023/11/03 04:23:32;;;;;;;3.85;1.20;;;10.00;99.90;;;;;;5003805;28;20054;-87
2023/11/03 04:25:58;;;;;;;4.57;1.52;;;9.90;99.90;;;;;;5002800;28;20476;-82
2023/11/03 04:28:24;;;;;;;7.15;1.25;;;9.90;99.90;;;;;;5004646;28;20597;-84
2023/11/03 04:30:50;;;;;;;4.15;1.30;;;9.80;99.90;;;;;;5003012;28;20050;-81
2023/11/03 04:33:16;;;;;;;8.45;1.40;;;9.80;99.90;;;;;;4998693;28;20045;-83
2023/11/03 04:35:42;;;;;;;6.82;1.15;;;9.70;99.90;;;;;;5002714;28;20084;-81
2023/11/03 04:38:09;;;;;;;7.03;1.77;;;9.70;99.90;;;;;;5022216;28;20550;-85
2023/11/03 04:40:35;;;;;;;5.70;1.20;;;9.60;99.90;;;;;;5000257;28;20018;-82
2023/11/03 04:43:01;;;;;;;5.78;1.15;;;9.60;99.90;;;;;;4999435;28;20038;-82
2023/11/03 04:45:26;;;;;;;5.65;1.55;;;9.60;99.90;;;;;;5002013;28;20018;-89
2023/11/03 04:47:53;;;;;;;8.40;1.70;;;9.50;99.90;;;;;;5004987;28;20042;-91
2023/11/03 04:50:19;;;;;;;4.47;1.40;;;9.50;99.90;;;;;;4996863;28;20072;-83
2023/11/03 04:52:45;;;;;;;5.40;1.48;;;9.40;99.90;;;;;;5009732;28;20026;-83
2023/11/03 04:55:10;;;;;;;8.40;2.20;;;9.40;99.90;;;;;;4993931;28;20034;-86
2023/11/03 04:57:36;;;;;;;5.35;1.45;;;9.40;99.90;;;;;;5000863;28;20104;-84
2023/11/03 05:00:03;;;;;;;6.40;1.48;;;9.40;99.90;;;;;;5012610;28;20113;-84
2023/11/03 05:02:29;;;;;;;4.40;1.33;;;9.40;99.90;;;;;;4999248;28;20089;-84
2023/11/03 05:04:55;;;;;;;8.65;2.20;;;9.40;99.90;;;;;;5001364;28;20637;-85
2023/11/03 05:07:22;;;;;;;7.90;1.50;;;9.40;99.90;;;;;;4992051;28;20046;-87
2023/11/03 05:09:48;;;;;;;10.48;1.60;;;9.40;99.90;;;;;;5004976;28;20045;-82
2023/11/03 05:12:13;;;;;;;7.13;1.83;;;9.40;99.90;;;;;;5035022;28;20025;-87
2023/11/03 05:14:39;;;;;;;10.52;1.95;;;9.40;99.90;;;;;;5046170;28;20095;-88
2023/11/03 05:17:07;;;;;;;8.32;1.70;;;9.40;99.90;;;;;;5033476;28;20025;-88
2023/11/03 05:19:35;;;;;;;12.13;2.35;;;9.40;99.90;;;;;;5047363;28;20067;-83
2023/11/03 05:22:01;;;;;;;6.35;1.50;;;9.40;99.90;;;;;;5034283;28;20479;-84
2023/11/03 05:24:27;;;;;;;8.00;1.73;;;9.40;99.90;;;;;;5032547;28;20483;-84
2023/11/03 05:26:53;;;;;;;8.13;1.73;;;9.40;99.90;;;;;;5047185;28;20056;-85
2023/11/03 05:29:22;;;;;;;11.43;1.85;;;9.40;99.90;;;;;;5045863;28;20051;-81
2023/11/03 05:31:49;;;;;;;9.93;1.80;;;9.40;99.90;;;;;;5038061;28;20368;-79
2023/11/03 05:34:15;;;;;;;9.80;2.13;;;9.50;99.90;;;;;;5040063;28;20021;-81
2023/11/03 05:36:41;;;;;;;8.43;1.80;;;9.40;99.90;;;;;;5031022;28;20521;-81
2023/11/03 05:39:08;;;;;;;8.95;2.08;;;9.40;99.90;;;;;;5032036;28;20034;-88
2023/11/03 05:41:34;;;;;;;5.38;1.50;;;9.40;99.90;;;;;;5047798;28;20504;-78
2023/11/03 05:43:59;;;;;;;12.32;1.77;;;9.50;99.90;;;;;;5043083;28;20120;-82
2023/11/03 05:46:25;;;;;;;10.55;2.00;;;9.50;99.90;;;;;;5031510;28;20049;-84
2023/11/03 05:48:52;;;;;;;9.77;2.10;;;9.50;99.90;;;;;;5045559;28;20026;-81
2023/11/03 05:51:21;;;;;;;10.65;2.25;;;9.50;99.90;;;;;;5042905;28;20028;-82
2023/11/03 05:53:48;;;;;;;13.77;2.42;;;9.50;99.90;;;;;;5032038;28;20136;-79
2023/11/03 05:56:14;;;;;;;11.23;2.45;;;9.50;99.90;;;;;;5030805;28;20045;-80
2023/11/03 05:58:40;;;;;;;12.88;2.35;;;9.50;99.90;;;;;;5044203;28;20421;-82
2023/11/03 06:01:07;;;;;;;8.27;1.63;;;9.50;99.90;;;;;;5038319;28;20013;-81
2023/11/03 06:03:33;;;;;;;6.43;1.58;;;9.60;99.90;;;;;;5036647;28;20029;-84
2023/11/03 06:05:58;;;;;;;7.60;1.65;;;9.60;99.90;;;;;;5036689;28;20517;-82
2023/11/03 06:08:24;;;;;;;5.85;2.00;;;9.60;99.90;;;;;;5043712;28;20505;-86
2023/11/03 06:10:50;;;;;;;10.93;2.28;;;9.60;99.90;;;;;;5030827;28;20049;-84
2023/11/03 06:13:16;;;;;;;11.45;2.00;;;9.60;99.90;;;;;;5041152;28;20025;-81
2023/11/03 06:15:43;;;;;;;8.70;2.03;;;9.60;99.90;;;;;;5045547;28;20029;-82
2023/11/03 06:18:11;;;;;;;11.68;1.83;;;9.60;99.90;;;;;;5031807;28;20034;-83
2023/11/03 06:20:37;;;;;;;8.93;2.30;;;9.70;99.90;;;;;;5040885;28;20021;-87
2023/11/03 06:23:03;;;;;;;12.18;2.22;;;9.70;99.90;;;;;;5034336;28;20105;-88
2023/11/03 06:25:29;;;;;;;9.90;1.70;;;9.70;99.90;;;;;;5040192;28;20112;-84
2023/11/03 06:27:55;;;;;;;7.38;1.83;;;9.70;99.90;;;;;;5033370;28;20113;-84
2023/11/03 06:30:21;;;;;;;9.07;1.80;;;9.70;99.90;;;;;;5036404;28;20029;-80
2023/11/03 06:32:47;;;;;;;8.68;2.00;;;9.70;99.90;;;;;;5034743;28;20025;-80
2023/11/03 06:35:12;;;;;;;6.57;1.83;;;9.60;99.90;;;;;;5042571;28;20036;-82
2023/11/03 06:37:38;;;;;;;6.38;1.80;;;9.60;99.90;;;;;;5029849;28;20028;-81
2023/11/03 06:40:04;;;;;;;9.80;1.85;;;9.60;99.90;;;;;;5042695;28;20029;-79
2023/11/03 06:42:31;;;;;;;10.57;2.08;;;9.60;99.90;;;;;;5028908;28;20491;-83
2023/11/03 06:44:57;;;;;;;11.20;1.88;;;9.60;99.90;;;;;;5029242;28;20486;-81
2023/11/03 06:47:22;;;;;;;9.68;2.10;;;9.60;99.90;;;;;;5033830;28;20027;-80
2023/11/03 06:49:48;;;;;;;8.27;1.98;;;9.50;99.90;;;;;;5029406;28;20053;-82
2023/11/03 06:52:13;;;;;;;13.00;2.03;;;9.60;99.90;;;;;;5033095;28;20099;-81
2023/11/03 06:54:39;;;;;;;10.60;2.28;;;9.50;99.90;;;;;;5031397;28;20053;-82
2023/11/03 06:57:08;;;;;;;15.57;2.72;;;9.50;99.90;;;;;;5030987;28;20028;-79
2023/11/03 06:59:34;;;;;;;10.48;2.10;;;9.50;99.90;;;;;;5027988;28;20104;-81
2023/11/03 07:02:00;;;;;;;9.35;1.95;;;9.50;99.90;;;;;;5040586;28;20136;-81
2023/11/03 07:04:25;;;;;;;11.07;2.13;;;9.50;99.90;;;;;;5031681;28;20028;-78
2023/11/03 07:06:52;;;;;;;7.25;1.83;;;9.50;99.90;;;;;;5035099;28;20046;-85
2023/11/03 07:09:18;;;;;;;10.73;2.25;;;9.40;99.90;;;;;;5033916;28;20091;-80
2023/11/03 07:11:44;;;;;;;11.07;2.03;;;9.40;99.90;;;;;;5020052;28;20119;-81
2023/11/03 07:14:10;;;;;;;8.48;1.65;;;9.40;99.90;;;;;;5029055;28;20730;-84
2023/11/03 07:16:42;;;;;;;9.95;1.90;;;9.40;99.90;;;;;;5037296;28;20033;-80
2023/11/03 07:19:08;;;;;;;8.68;1.88;;;9.40;99.90;;;;;;5034825;28;20037;-79
2023/11/03 07:21:34;;;;;;;12.02;2.17;;;9.40;99.90;;;;;;5039730;28;20024;-81
2023/11/03 07:24:00;;;;;;;19.52;2.75;;;9.40;99.90;;;;;;5021705;28;20454;-81
2023/11/03 07:26:28;;;;;;;10.15;2.28;;;9.40;99.90;;;;;;5024782;28;20021;-84
2023/11/03 07:28:54;;;;;;;7.90;1.88;;;9.40;99.90;;;;;;5027990;28;20017;-80
2023/11/03 07:31:20;;;;;;;10.57;2.20;;;9.40;99.90;;;;;;5029863;28;20442;-81
2023/11/03 07:33:46;;;;;;;11.02;2.17;;;9.40;99.90;;;;;;5042443;28;20029;-84
2023/11/03 07:36:11;;;;;;;8.85;2.00;;;9.40;99.90;;;;;;5036219;28;20033;-83
2023/11/03 07:38:37;;;;;;;9.68;2.22;;;9.40;99.90;;;;;;5028499;28;20079;-80
2023/11/03 07:41:07;;;;;;;9.50;2.20;;;9.40;99.90;;;;;;5032093;28;20029;-81
2023/11/03 07:43:33;;;;;;;15.02;2.97;;;9.50;99.90;;;;;;5029412;28;20556;-80
2023/11/03 07:45:59;;;;;;;13.57;2.72;;;9.50;99.90;;;;;;5034132;28;20029;-81
2023/11/03 07:48:25;;;;;;;8.70;2.30;;;9.50;99.90;;;;;;5023789;28;20037;-81
2023/11/03 07:50:51;;;;;;;11.20;2.03;;;9.50;99.90;;;;;;5031388;28;20029;-83
2023/11/03 07:53:16;;;;;;;11.88;2.22;;;9.50;99.90;;;;;;5031294;28;20045;-79
2023/11/03 07:55:42;;;;;;;13.85;1.95;;;9.50;99.90;;;;;;5036328;28;20029;-84
2023/11/03 07:58:08;;;;;;;9.90;2.03;;;9.50;99.90;;;;;;5018985;28;20021;-80
2023/11/03 08:00:34;;;;;;;8.93;2.03;;;9.60;99.90;;;;;;5028903;28;20398;-80
2023/11/03 08:03:00;;;;;;;8.90;1.95;;;9.60;99.90;;;;;;5035613;28;20033;-81
2023/11/03 08:05:26;;;;;;;12.90;1.83;;;9.60;99.90;;;;;;5023184;28;20073;-80
2023/11/03 08:07:53;;;;;;;10.82;2.28;;;9.60;99.90;;;;;;5027936;28;20052;-81
2023/11/03 08:10:19;;;;;;;9.30;1.98;;;9.60;99.90;;;;;;5022970;28;20117;-81
2023/11/03 08:12:44;;;;;;;11.90;2.53;;;9.70;99.90;;;;;;5030690;28;20115;-82
2023/11/03 08:15:10;;;;;;;13.38;2.10;;;9.70;99.90;;;;;;5030290;28;20025;-83
2023/11/03 08:17:36;;;;;;;13.77;2.25;;;9.70;99.90;;;;;;5037661;28;20498;-81
2023/11/03 08:20:05;;;;;;;13.48;2.17;;;9.80;99.90;;;;;;5035586;28;20083;-81
2023/11/03 08:22:32;;;;;;;14.32;2.47;;;9.80;99.90;;;;;;5025705;28;20304;-80
2023/11/03 08:24:58;;;;;;;11.50;2.10;;;9.80;99.90;;;;;;5039763;28;20041;-81
2023/11/03 08:27:23;;;;;;;12.80;2.28;;;9.90;99.90;;;;;;5018978;28;20104;-79
2023/11/03 08:29:49;;;;;;;8.95;1.73;;;9.90;99.90;;;;;;5014150;28;20026;-82
2023/11/03 08:32:15;;;;;;;13.57;2.45;;;9.90;99.90;;;;;;5029673;28;20513;-83
2023/11/03 08:34:42;;;;;;;10.82;2.15;;;9.90;99.90;;;;;;5027427;28;20038;-82
2023/11/03 08:37:07;;;;;;;16.38;2.80;;;10.00;99.90;;;;;;5037640;28;20359;-79
2023/11/03 08:39:33;;;;;;;16.15;3.20;;;10.00;99.90;;;;;;5025964;28;20036;-81
2023/11/03 08:42:02;;;;;;;12.50;2.30;;;10.10;99.90;;;;;;5023491;28;20033;-80
2023/11/03 08:44:29;;;;;;;13.57;2.38;;;10.20;99.90;;;;;;5032426;28;20053;-81
2023/11/03 08:46:56;;;;;;;11.77;2.00;;;10.30;99.90;;;;;;5045489;28;20524;-82
2023/11/03 08:49:23;;;;;;;15.77;2.45;;;10.40;99.90;;;;;;5038549;28;20080;-82
2023/11/03 08:51:51;;;;;;;11.13;2.35;;;10.50;99.90;;;;;;5039493;28;20039;-84
2023/11/03 08:54:18;;;;;;;9.77;2.15;;;10.60;99.90;;;;;;5029321;28;20076;-82
2023/11/03 08:56:44;;;;;;;15.13;2.35;;;10.70;99.90;;;;;;5042774;28;20409;-80
2023/11/03 08:59:09;;;;;;;11.05;2.10;;;10.90;99.90;;;;;;5028022;28;20052;-83
2023/11/03 09:01:35;;;;;;;14.10;2.10;;;11.00;99.90;;;;;;5040403;28;20565;-82
2023/11/03 09:04:01;;;;;;;13.05;2.28;;;11.00;99.90;;;;;;5030645;28;20031;-82
2023/11/03 09:06:27;;;;;;;11.60;2.78;;;11.10;99.90;;;;;;5037468;28;20045;-80
2023/11/03 09:08:53;;;;;;;15.57;2.40;;;11.10;99.90;;;;;;5045790;28;20069;-85
2023/11/03 09:11:19;;;;;;;10.80;2.72;;;11.20;99.90;;;;;;5038524;28;20087;-83
2023/11/03 09:13:55;;;;;;;10.43;2.17;;;11.20;99.90;;;;;;5042872;28;20036;-84
2023/11/03 09:16:22;;;;;;;10.55;2.20;;;11.20;99.90;;;;;;5033803;28;20108;-85
2023/11/03 09:18:50;;;;;;;14.88;2.50;;;11.20;99.90;;;;;;5052383;28;20032;-83
2023/11/03 09:21:16;;;;;;;15.30;3.13;;;11.20;99.90;;;;;;5037250;28;20025;-83
2023/11/03 09:23:43;;;;;;;13.40;2.17;;;11.20;99.90;;;;;;5036521;28;20083;-81
2023/11/03 09:26:08;;;;;;;13.35;2.35;;;11.20;99.90;;;;;;5045226;28;20075;-80
2023/11/03 09:28:35;;;;;;;15.70;3.13;;;11.30;99.90;;;;;;5018716;28;20434;-82
2023/11/03 09:31:00;;;;;;;13.00;2.67;;;11.20;99.90;;;;;;5023998;28;20029;-80
2023/11/03 09:33:26;;;;;;;14.07;2.75;;;11.30;99.90;;;;;;5045510;28;20037;-82
2023/11/03 09:35:52;;;;;;;13.32;2.30;;;11.30;99.90;;;;;;5029581;28;20525;-82
2023/11/03 09:38:19;;;;;;;15.13;2.97;;;11.40;99.90;;;;;;5046741;28;20037;-82
2023/11/03 09:40:46;;;;;;;13.65;2.63;;;11.40;99.90;;;;;;5038365;28;20018;-80
2023/11/03 09:43:13;;;;;;;10.85;1.90;;;11.50;99.90;;;;;;5030436;28;20140;-80
2023/11/03 09:45:41;;;;;;;12.40;2.25;;;11.50;99.90;;;;;;5028187;28;20028;-82
2023/11/03 09:48:11;;;;;;;11.60;2.72;;;11.60;99.90;;;;;;5032898;28;20082;-80
2023/11/03 09:50:37;;;;;;;13.88;3.08;;;11.60;99.90;;;;;;5034517;28;20491;-83
2023/11/03 09:53:11;;;;;;;12.57;2.33;;;11.50;99.90;;;;;;5028018;28;20098;-86
2023/11/03 09:55:38;;;;;;;13.30;2.25;;;11.50;99.90;;;;;;5032724;28;20028;-86
2023/11/03 09:58:06;;;;;;;15.30;2.65;;;11.50;99.90;;;;;;5033079;28;20021;-84
2023/11/03 10:00:32;;;;;;;12.52;2.58;;;11.50;99.90;;;;;;5031330;28;20167;-83
2023/11/03 10:02:58;;;;;;;10.45;2.83;;;11.40;99.90;;;;;;5033235;28;20029;-85
2023/11/03 10:05:27;;;;;;;15.35;2.95;;;11.40;99.90;;;;;;5031930;28;20387;-83
2023/11/03 10:08:00;;;;;;;10.25;2.30;;;11.50;99.90;;;;;;5034439;28;20025;-83
2023/11/03 10:10:28;;;;;;;16.48;2.58;;;11.50;99.90;;;;;;5035427;28;20168;-82
2023/11/03 10:12:53;;;;;;;15.07;2.90;;;11.50;99.90;;;;;;5028728;28;20026;-80
2023/11/03 10:15:20;;;;;;;17.35;2.78;;;11.50;99.90;;;;;;5026770;28;20032;-82
2023/11/03 10:17:47;;;;;;;13.10;1.90;;;11.40;99.90;;;;;;5027275;28;20033;-79
2023/11/03 10:20:13;;;;;;;14.65;2.90;;;11.40;99.90;;;;;;5035800;28;20529;-82
2023/11/03 10:22:39;;;;;;;13.63;2.40;;;11.40;99.90;;;;;;5031394;28;20087;-79
2023/11/03 10:25:08;;;;;;;18.52;2.60;;;11.40;99.90;;;;;;5029216;28;20103;-79
2023/11/03 10:27:35;;;;;;;12.52;2.45;;;11.40;99.90;;;;;;5024648;28;20025;-81
2023/11/03 10:30:05;;;;;;;16.40;2.47;;;11.40;99.90;;;;;;5022080;28;20048;-81
2023/11/03 10:32:35;;;;;;;12.35;2.45;;;11.40;99.90;;;;;;5027848;28;20034;-81
2023/11/03 10:35:05;;;;;;;18.95;2.53;;;11.50;99.90;;;;;;5029923;28;20009;-82
2023/11/03 10:37:35;;;;;;;9.13;1.88;;;11.40;99.90;;;;;;5036759;28;20112;-81
2023/11/03 10:40:01;;;;;;;12.93;2.83;;;11.50;99.90;;;;;;5027306;28;20029;-81
2023/11/03 10:42:28;;;;;;;14.35;1.90;;;11.40;99.90;;;;;;5029681;28;20037;-86
2023/11/03 10:44:57;;;;;;;10.15;2.20;;;11.40;99.90;;;;;;5031387;28;20033;-80
2023/11/03 10:47:26;;;;;;;12.35;2.50;;;11.40;99.90;;;;;;5046563;28;20024;-82
2023/11/03 10:49:59;;;;;;;13.27;2.67;;;11.40;99.90;;;;;;5039649;28;20025;-83
2023/11/03 10:52:29;;;;;;;10.40;2.13;;;11.40;99.90;;;;;;5036202;28;20033;-84
2023/11/03 10:55:07;;;;;;;10.00;2.30;;;11.40;99.90;;;;;;5043499;28;20029;-83
2023/11/03 10:57:33;;;;;;;9.43;2.00;;;11.50;99.90;;;;;;5015945;28;20471;-82
2023/11/03 11:00:09;;;;;;;14.82;2.42;;;11.40;99.90;;;;;;5028229;28;20052;-83
2023/11/03 11:02:53;;;;;;;13.35;2.60;;;11.50;99.90;;;;;;5042621;28;20029;-79
2023/11/03 11:05:23;;;;;;;14.75;2.60;;;11.50;99.90;;;;;;5037550;28;20471;-83
2023/11/03 11:07:56;;;;;;;14.77;2.42;;;11.50;99.90;;;;;;5036238;28;20203;-83
2023/11/03 11:10:41;;;;;;;11.57;2.42;;;11.50;99.90;;;;;;5031109;28;20049;-81
2023/11/03 11:13:21;;;;;;;14.90;2.90;;;11.50;99.90;;;;;;5025682;28;20033;-81
2023/11/03 11:15:56;;;;;;;18.67;2.85;;;11.60;99.90;;;;;;5035783;28;20025;-81
2023/11/03 11:18:28;;;;;;;13.88;2.40;;;11.70;99.90;;;;;;5031319;28;20033;-81
2023/11/03 11:20:55;;;;;;;9.10;1.90;;;11.70;99.90;;;;;;5034732;28;20025;-80
2023/11/03 11:23:22;;;;;;;13.27;2.72;;;11.70;99.90;;;;;;5033594;28;20099;-80
2023/11/03 11:25:52;;;;;;;11.95;2.20;;;11.80;99.90;;;;;;5035888;28;20529;-81
2023/11/03 11:28:40;;;;;;;11.55;2.90;;;11.80;99.90;;;;;;5020021;28;20039;-83
2023/11/03 11:31:24;;;;;;;13.63;2.58;;;11.90;99.90;;;;;;5040654;28;20031;-80
2023/11/03 11:34:13;;;;;;;11.60;2.15;;;11.90;99.90;;;;;;5023582;28;20507;-83
2023/11/03 11:36:40;;;;;;;15.25;2.60;;;11.90;99.90;;;;;;5027581;28;20403;-79
2023/11/03 11:39:06;;;;;;;11.77;2.28;;;11.90;99.90;;;;;;5022223;28;20025;-81
2023/11/03 11:41:35;;;;;;;12.63;2.15;;;11.80;99.90;;;;;;5035284;28;20036;-83
2023/11/03 11:44:02;;;;;;;15.90;2.83;;;11.80;99.90;;;;;;5019917;28;20025;-83
2023/11/03 11:46:30;;;;;;;10.13;2.35;;;11.80;99.90;;;;;;5018412;28;20379;-80
2023/11/03 11:49:00;;;;;;;13.40;2.75;;;11.90;99.90;;;;;;5026210;28;20032;-79
2023/11/03 11:51:26;;;;;;;14.55;2.78;;;11.90;99.90;;;;;;5030341;28;20064;-81
2023/11/03 11:54:01;;;;;;;12.32;2.67;;;12.00;99.90;;;;;;5017797;28;20075;-81
2023/11/03 11:56:27;;;;;;;12.32;2.15;;;12.10;99.90;;;;;;5027223;28;20042;-80
2023/11/03 11:58:55;;;;;;;11.55;2.00;;;12.20;99.90;;;;;;5031430;28;20018;-82
2023/11/03 12:01:22;;;;;;;14.40;2.92;;;12.30;99.90;;;;;;5026656;28;20040;-81
2023/11/03 12:03:49;;;;;;;7.13;1.83;;;12.50;99.90;;;;;;5039214;28;20021;-84
2023/11/03 12:06:15;;;;;;;9.02;1.90;;;12.60;99.90;;;;;;5025662;28;20109;-82
2023/11/03 12:08:41;;;;;;;13.38;1.98;;;12.70;99.90;;;;;;5029314;28;20487;-84
2023/11/03 12:11:06;;;;;;;15.55;2.55;;;12.70;99.90;;;;;;5028817;28;20471;-80
2023/11/03 12:13:36;;;;;;;14.20;3.42;;;12.60;99.90;;;;;;5028389;28;20030;-81
2023/11/03 12:16:02;;;;;;;12.20;2.20;;;12.60;99.90;;;;;;5032675;28;20026;-84
2023/11/03 12:18:28;;;;;;;8.88;1.80;;;12.60;99.90;;;;;;5032906;28;20052;-82
2023/11/03 12:21:03;;;;;;;12.18;2.45;;;12.50;99.90;;;;;;5017785;28;20103;-82
2023/11/03 12:23:30;;;;;;;9.98;1.88;;;12.60;99.90;;;;;;5017144;28;20044;-82
2023/11/03 12:26:01;;;;;;;9.82;2.15;;;12.80;99.90;;;;;;5038951;28;20052;-81
2023/11/03 12:28:28;;;;;;;;;;;12.90;99.90;;;;;;5026713;28;20179;-81
2023/11/03 12:30:57;;;;;;;11.73;2.35;;;12.90;99.90;;;;;;5022171;28;19916;-83
2023/11/03 12:33:27;;;;;;;10.48;2.58;;;12.90;99.90;;;;;;5030346;28;20025;-82
2023/11/03 12:35:54;;;;;;;15.85;2.08;;;12.90;99.90;;;;;;5032206;28;20022;-88
2023/11/03 12:38:21;;;;;;;12.30;2.20;;;12.90;99.90;;;;;;5022934;28;20025;-82
2023/11/03 12:40:47;;;;;;;13.38;3.05;;;12.90;99.90;;;;;;5027640;28;20486;-80
2023/11/03 12:43:14;;;;;;;9.05;1.42;;;12.90;99.90;;;;;;5019343;28;20679;-84
2023/11/03 12:45:41;;;;;;;10.30;2.17;;;12.90;99.90;;;;;;5017753;28;20022;-84